createdAt,value
2023-04-27T00:01:37.169Z,8.19
2023-04-27T00:04:07.717Z,8.17
2023-04-27T00:06:35.092Z,8.16
2023-04-27T00:09:02.094Z,8.14
2023-04-27T00:11:29.608Z,8.11
2023-04-27T00:13:56.770Z,8.08
2023-04-27T00:16:23.709Z,8.05
2023-04-27T00:18:50.574Z,8.04
2023-04-27T00:21:17.406Z,8.02
2023-04-27T00:23:44.541Z,8.01
2023-04-27T00:26:11.422Z,7.98
2023-04-27T00:28:38.224Z,7.97
2023-04-27T00:31:05.175Z,7.95
2023-04-27T00:33:32.123Z,7.91
2023-04-27T00:36:02.766Z,7.88
2023-04-27T00:38:30.378Z,7.82
2023-04-27T00:41:08.321Z,7.80
2023-04-27T00:43:45.948Z,7.75
2023-04-27T00:46:17.416Z,7.73
2023-04-27T00:48:44.838Z,7.71
2023-04-27T00:51:11.974Z,7.67
2023-04-27T00:53:39.388Z,7.68
2023-04-27T00:56:07.684Z,7.68
2023-04-27T00:58:34.873Z,7.65
2023-04-27T01:01:02.168Z,7.62
2023-04-27T01:03:30.757Z,7.64
2023-04-27T01:06:01.584Z,7.63
2023-04-27T01:08:29.424Z,7.60
2023-04-27T01:10:56.421Z,7.59
2023-04-27T01:13:23.480Z,7.57
2023-04-27T01:15:50.400Z,7.55
2023-04-27T01:18:17.261Z,7.53
2023-04-27T01:20:45.225Z,7.51
2023-04-27T01:23:17.292Z,7.50
2023-04-27T01:25:45.118Z,7.49
2023-04-27T01:28:12.811Z,7.47
2023-04-27T01:30:39.793Z,7.48
2023-04-27T01:33:06.688Z,7.47
2023-04-27T01:35:33.527Z,7.49
2023-04-27T01:38:01.530Z,7.48
2023-04-27T01:40:28.740Z,7.50
2023-04-27T01:42:56.245Z,7.50
2023-04-27T01:45:23.057Z,7.47
2023-04-27T01:47:53.154Z,7.48
2023-04-27T01:50:20.773Z,7.46
2023-04-27T01:52:47.951Z,7.42
2023-04-27T01:55:14.962Z,7.42
2023-04-27T01:57:41.936Z,7.41
2023-04-27T02:00:09.550Z,7.40
2023-04-27T02:02:36.525Z,7.36
2023-04-27T02:05:04.511Z,7.31
2023-04-27T02:07:31.529Z,7.29
2023-04-27T02:09:58.430Z,7.25
2023-04-27T02:12:25.437Z,7.23
2023-04-27T02:14:52.316Z,7.21
2023-04-27T02:17:19.016Z,7.21
2023-04-27T02:19:45.843Z,7.22
2023-04-27T02:22:12.842Z,7.22
2023-04-27T02:24:39.669Z,7.22
2023-04-27T02:27:06.622Z,7.21
2023-04-27T02:29:33.871Z,7.21
2023-04-27T02:32:01.261Z,7.19
2023-04-27T02:34:28.290Z,7.21
2023-04-27T02:36:55.183Z,7.17
2023-04-27T02:39:21.990Z,7.12
2023-04-27T02:41:48.764Z,7.06
2023-04-27T02:44:15.671Z,7.03
2023-04-27T02:46:42.597Z,7.02
2023-04-27T02:49:09.462Z,7.02
2023-04-27T02:51:36.240Z,7.01
2023-04-27T02:54:03.039Z,6.99
2023-04-27T02:56:30.392Z,6.95
2023-04-27T02:58:57.269Z,6.94
2023-04-27T03:01:24.231Z,6.97
2023-04-27T03:03:51.144Z,6.98
2023-04-27T03:06:18.152Z,6.99
2023-04-27T03:08:45.008Z,7.01
2023-04-27T03:11:12.690Z,7.02
2023-04-27T03:13:42.326Z,7.02
2023-04-27T03:16:11.496Z,7.03
2023-04-27T03:18:39.281Z,7.07
2023-04-27T03:21:09.531Z,7.12
2023-04-27T03:23:36.980Z,7.17
2023-04-27T03:26:11.242Z,7.22
2023-04-27T03:28:38.766Z,7.24
2023-04-27T03:31:06.885Z,7.28
2023-04-27T03:33:34.224Z,7.31
2023-04-27T03:36:01.224Z,7.33
2023-04-27T03:38:28.540Z,7.35
2023-04-27T03:40:55.396Z,7.39
2023-04-27T03:43:23.031Z,7.43
2023-04-27T03:45:49.982Z,7.51
2023-04-27T03:48:17.117Z,7.56
2023-04-27T03:50:44.691Z,7.64
2023-04-27T03:53:11.632Z,7.71
2023-04-27T03:55:42.740Z,7.81
2023-04-27T03:58:10.552Z,7.87
2023-04-27T04:00:38.174Z,7.97
2023-04-27T04:03:06.992Z,8.04
2023-04-27T04:05:34.254Z,8.03
2023-04-27T04:08:00.993Z,8.10
2023-04-27T04:10:28.728Z,8.20
2023-04-27T04:12:55.737Z,8.28
2023-04-27T04:15:22.525Z,8.39
2023-04-27T04:17:49.533Z,8.50
2023-04-27T04:20:16.869Z,8.58
2023-04-27T04:22:44.328Z,8.70
2023-04-27T04:25:11.564Z,8.81
2023-04-27T04:27:38.575Z,8.92
2023-04-27T04:30:07.294Z,9.04
2023-04-27T04:32:37.938Z,9.07
2023-04-27T04:35:08.236Z,9.21
2023-04-27T04:37:38.033Z,9.33
2023-04-27T04:40:10.038Z,9.47
2023-04-27T04:42:38.096Z,9.60
2023-04-27T04:45:05.769Z,9.72
2023-04-27T04:47:34.174Z,9.82
2023-04-27T04:50:01.676Z,9.92
2023-04-27T04:52:31.897Z,10.02
2023-04-27T04:54:58.833Z,10.13
2023-04-27T04:57:25.956Z,10.25
2023-04-27T04:59:52.787Z,10.40
2023-04-27T05:02:19.722Z,10.55
2023-04-27T05:04:46.648Z,10.69
2023-04-27T05:07:15.274Z,10.85
2023-04-27T05:09:42.876Z,10.99
2023-04-27T05:12:10.283Z,11.11
2023-04-27T05:14:37.145Z,11.22
2023-04-27T05:17:03.994Z,11.40
2023-04-27T05:19:31.438Z,11.56
2023-04-27T05:22:01.379Z,11.77
2023-04-27T05:24:28.206Z,11.87
2023-04-27T05:26:55.177Z,12.01
2023-04-27T05:29:22.862Z,12.15
2023-04-27T05:31:49.761Z,12.29
2023-04-27T05:34:16.920Z,12.41
2023-04-27T05:36:43.968Z,12.56
2023-04-27T05:39:10.810Z,12.82
2023-04-27T05:41:37.709Z,13.06
2023-04-27T05:44:04.976Z,13.22
2023-04-27T05:46:31.850Z,13.31
2023-04-27T05:48:58.834Z,13.38
2023-04-27T05:51:26.125Z,13.48
2023-04-27T05:53:56.293Z,13.61
2023-04-27T05:56:23.189Z,13.76
2023-04-27T05:58:50.070Z,13.85
2023-04-27T06:01:17.052Z,13.89
2023-04-27T06:03:44.127Z,13.97
2023-04-27T06:06:11.090Z,14.07
2023-04-27T06:08:39.558Z,14.17
2023-04-27T06:11:07.003Z,14.26
2023-04-27T06:13:34.203Z,14.34
2023-04-27T06:16:01.880Z,14.47
2023-04-27T06:18:29.054Z,14.63
2023-04-27T06:21:00.725Z,14.79
2023-04-27T06:23:27.992Z,14.84
2023-04-27T06:25:55.072Z,15.03
2023-04-27T06:28:21.939Z,15.10
2023-04-27T06:30:48.778Z,15.21
2023-04-27T06:33:15.760Z,15.29
2023-04-27T06:35:44.603Z,15.44
2023-04-27T06:38:13.420Z,15.57
2023-04-27T06:40:40.541Z,15.66
2023-04-27T06:43:07.419Z,15.87
2023-04-27T06:45:34.257Z,16.09
2023-04-27T06:48:01.140Z,16.32
2023-04-27T06:50:28.317Z,16.49
2023-04-27T06:52:55.147Z,16.59
2023-04-27T06:55:22.097Z,16.65
2023-04-27T06:57:48.981Z,16.74
2023-04-27T07:00:16.300Z,16.86
2023-04-27T07:02:44.004Z,16.99
2023-04-27T07:05:11.051Z,17.13
2023-04-27T07:07:37.915Z,17.21
2023-04-27T07:10:08.278Z,17.29
2023-04-27T07:12:35.344Z,17.35
2023-04-27T07:15:04.567Z,17.42
2023-04-27T07:17:33.450Z,17.40
2023-04-27T07:20:01.739Z,17.45
2023-04-27T07:22:31.716Z,17.52
2023-04-27T07:24:58.797Z,17.58
2023-04-27T07:27:26.700Z,17.65
2023-04-27T07:29:53.806Z,17.71
2023-04-27T07:32:22.067Z,17.75
2023-04-27T07:34:53.451Z,17.75
2023-04-27T07:37:22.111Z,17.70
2023-04-27T07:39:50.553Z,17.69
2023-04-27T07:42:17.509Z,17.73
2023-04-27T07:44:44.555Z,17.77
2023-04-27T07:47:11.591Z,17.89
2023-04-27T07:49:38.443Z,18.00
2023-04-27T07:52:05.750Z,18.05
2023-04-27T07:54:32.625Z,18.16
2023-04-27T07:56:59.442Z,18.24
2023-04-27T07:59:29.668Z,18.28
2023-04-27T08:02:07.089Z,18.33
2023-04-27T08:04:38.412Z,18.40
2023-04-27T08:07:06.185Z,18.42
2023-04-27T08:09:33.705Z,18.47
2023-04-27T08:12:00.576Z,18.53
2023-04-27T08:14:27.348Z,18.60
2023-04-27T08:16:54.231Z,18.69
2023-04-27T08:19:21.385Z,18.76
2023-04-27T08:21:48.214Z,18.82
2023-04-27T08:24:15.026Z,18.85
2023-04-27T08:27:01.128Z,18.87
2023-04-27T08:29:29.035Z,18.99
2023-04-27T08:31:59.674Z,19.11
2023-04-27T08:34:27.213Z,19.16
2023-04-27T08:36:54.387Z,19.27
2023-04-27T08:39:22.071Z,19.44
2023-04-27T08:41:49.152Z,19.60
2023-04-27T08:44:16.257Z,19.74
2023-04-27T08:46:43.168Z,19.80
2023-04-27T08:49:10.137Z,19.86
2023-04-27T08:51:37.128Z,19.93
2023-04-27T08:54:04.115Z,20.02
2023-04-27T08:56:31.187Z,20.00
2023-04-27T08:59:00.804Z,20.03
2023-04-27T09:01:27.845Z,20.11
2023-04-27T09:04:00.016Z,20.20
2023-04-27T09:06:34.824Z,20.39
2023-04-27T09:09:03.526Z,20.49
2023-04-27T09:11:33.905Z,20.48
2023-04-27T09:14:03.428Z,20.60
2023-04-27T09:16:31.310Z,20.74
2023-04-27T09:18:58.928Z,20.91
2023-04-27T09:21:27.914Z,21.10
2023-04-27T09:23:56.143Z,21.24
2023-04-27T09:26:28.202Z,21.40
2023-04-27T09:28:58.959Z,21.54
2023-04-27T09:31:36.559Z,21.59
2023-04-27T09:34:04.015Z,21.55
2023-04-27T09:36:32.789Z,21.51
2023-04-27T09:39:04.778Z,21.44
2023-04-27T09:41:32.847Z,21.35
2023-04-27T09:44:00.967Z,21.40
2023-04-27T09:46:29.891Z,21.46
2023-04-27T09:48:57.814Z,21.37
2023-04-27T09:51:24.720Z,21.43
2023-04-27T09:53:58.767Z,21.70
2023-04-27T09:56:55.778Z,21.90
2023-04-27T09:59:33.881Z,22.15
2023-04-27T10:02:13.302Z,22.26
2023-04-27T10:05:33.792Z,22.33
2023-04-27T10:08:00.902Z,22.27
2023-04-27T10:10:28.540Z,22.19
2023-04-27T10:13:02.335Z,22.27
2023-04-27T10:15:30.302Z,22.26
2023-04-27T10:18:05.805Z,22.06
2023-04-27T10:20:36.401Z,22.26
2023-04-27T10:23:03.503Z,22.51
2023-04-27T10:25:38.402Z,22.67
2023-04-27T10:28:08.369Z,22.51
2023-04-27T10:30:37.923Z,22.18
2023-04-27T10:33:12.031Z,21.83
2023-04-27T10:35:44.343Z,21.51
2023-04-27T10:38:11.290Z,21.32
2023-04-27T10:40:38.812Z,21.18
2023-04-27T10:43:13.700Z,20.98
2023-04-27T10:45:41.566Z,20.77
2023-04-27T10:48:09.539Z,20.60
2023-04-27T10:50:37.133Z,20.48
2023-04-27T10:53:06.702Z,20.34
2023-04-27T10:55:35.097Z,20.22
2023-04-27T10:58:02.316Z,20.04
2023-04-27T11:00:30.484Z,19.94
2023-04-27T11:03:12.137Z,19.92
2023-04-27T11:05:39.221Z,19.89
2023-04-27T11:08:07.615Z,19.85
2023-04-27T11:10:37.910Z,19.83
2023-04-27T11:13:15.753Z,19.75
2023-04-27T11:15:54.950Z,19.60
2023-04-27T11:18:24.207Z,19.38
2023-04-27T11:20:53.160Z,19.15
2023-04-27T11:23:29.008Z,18.98
2023-04-27T11:25:56.917Z,18.86
2023-04-27T11:28:24.505Z,18.72
2023-04-27T11:30:58.657Z,18.70
2023-04-27T11:33:27.116Z,18.77
2023-04-27T11:35:54.851Z,18.83
2023-04-27T11:38:22.123Z,18.88
2023-04-27T11:41:07.807Z,18.91
2023-04-27T11:43:35.282Z,18.95
2023-04-27T11:46:06.156Z,19.07
2023-04-27T11:48:33.161Z,19.17
2023-04-27T11:51:01.309Z,19.26
2023-04-27T11:53:36.839Z,19.11
2023-04-27T11:56:06.246Z,18.88
2023-04-27T11:58:35.201Z,18.69
2023-04-27T12:01:04.307Z,18.52
2023-04-27T12:03:32.114Z,18.39
2023-04-27T12:06:11.668Z,18.32
2023-04-27T12:08:43.334Z,18.26
2023-04-27T12:11:10.168Z,18.21
2023-04-27T12:13:37.262Z,18.34
2023-04-27T12:16:04.238Z,18.69
2023-04-27T12:18:31.342Z,19.00
2023-04-27T12:21:02.803Z,19.25
2023-04-27T12:23:30.291Z,19.41
2023-04-27T12:25:57.276Z,19.83
2023-04-27T12:28:24.259Z,19.95
2023-04-27T12:30:51.156Z,19.66
2023-04-27T12:33:18.151Z,19.37
2023-04-27T12:35:45.155Z,19.24
2023-04-27T12:38:12.058Z,19.14
2023-04-27T12:40:38.879Z,18.96
2023-04-27T12:43:07.666Z,18.87
2023-04-27T12:45:34.708Z,18.86
2023-04-27T12:48:04.246Z,18.92
2023-04-27T12:50:32.683Z,19.03
2023-04-27T12:53:00.278Z,19.13
2023-04-27T12:55:33.725Z,19.24
2023-04-27T12:58:03.393Z,19.33
2023-04-27T13:00:30.514Z,19.40
2023-04-27T13:02:58.567Z,19.45
2023-04-27T13:05:26.503Z,19.51
2023-04-27T13:07:53.424Z,19.65
2023-04-27T13:10:20.279Z,20.31
2023-04-27T13:12:47.103Z,20.66
2023-04-27T13:15:14.048Z,21.10
2023-04-27T13:17:43.142Z,21.77
2023-04-27T13:20:11.272Z,21.89
2023-04-27T13:22:39.795Z,21.70
2023-04-27T13:25:07.030Z,22.44
2023-04-27T13:27:33.763Z,23.73
2023-04-27T13:30:00.629Z,23.56
2023-04-27T13:32:27.626Z,23.25
2023-04-27T13:34:54.432Z,23.84
2023-04-27T13:37:21.752Z,25.48
2023-04-27T13:39:49.978Z,25.26
2023-04-27T13:42:16.855Z,23.73
2023-04-27T13:44:43.672Z,22.72
2023-04-27T13:47:11.356Z,22.25
2023-04-27T13:49:38.360Z,21.85
2023-04-27T13:52:05.232Z,21.61
2023-04-27T13:54:32.043Z,21.44
2023-04-27T13:56:58.930Z,21.51
2023-04-27T13:59:25.805Z,21.99
2023-04-27T14:01:53.345Z,22.88
2023-04-27T14:04:20.377Z,23.23
2023-04-27T14:06:47.301Z,24.07
2023-04-27T14:09:14.310Z,24.26
2023-04-27T14:11:55.105Z,23.53
2023-04-27T14:14:23.685Z,22.75
2023-04-27T14:16:53.511Z,22.12
2023-04-27T14:19:20.860Z,21.52
2023-04-27T14:21:49.708Z,21.10
2023-04-27T14:24:16.681Z,20.85
2023-04-27T14:26:44.391Z,20.53
2023-04-27T14:29:11.905Z,20.29
2023-04-27T14:31:40.062Z,20.03
2023-04-27T14:34:08.425Z,19.86
2023-04-27T14:36:35.992Z,19.69
2023-04-27T14:39:04.876Z,19.49
2023-04-27T14:41:31.674Z,19.35
2023-04-27T14:43:58.715Z,19.30
2023-04-27T14:46:25.656Z,19.21
2023-04-27T14:48:52.572Z,19.14
2023-04-27T14:51:19.554Z,19.06
2023-04-27T14:53:46.468Z,19.04
2023-04-27T14:56:13.313Z,18.94
2023-04-27T14:58:40.227Z,18.82
2023-04-27T15:01:08.078Z,18.74
2023-04-27T15:03:35.309Z,18.63
2023-04-27T15:06:03.186Z,18.60
2023-04-27T15:08:32.670Z,18.52
2023-04-27T15:11:01.054Z,18.40
2023-04-27T15:13:28.263Z,18.37
2023-04-27T15:15:56.663Z,18.38
2023-04-27T15:18:24.469Z,18.31
2023-04-27T15:20:52.716Z,18.22
2023-04-27T15:23:20.750Z,18.08
2023-04-27T15:25:48.590Z,17.92
2023-04-27T15:28:16.726Z,17.72
2023-04-27T15:30:44.686Z,17.57
2023-04-27T15:33:12.469Z,17.43
2023-04-27T15:35:40.559Z,17.32
2023-04-27T15:38:09.617Z,17.21
2023-04-27T15:40:36.603Z,17.12
2023-04-27T15:43:03.521Z,17.05
2023-04-27T15:45:31.598Z,16.97
2023-04-27T15:47:58.822Z,16.92
2023-04-27T15:50:26.103Z,16.87
2023-04-27T15:52:53.936Z,16.79
2023-04-27T15:55:22.701Z,16.72
2023-04-27T15:57:50.414Z,16.62
2023-04-27T16:00:19.051Z,16.51
2023-04-27T16:02:46.590Z,16.33
2023-04-27T16:05:14.080Z,16.27
2023-04-27T16:07:43.339Z,16.20
2023-04-27T16:10:11.772Z,16.18
2023-04-27T16:12:38.913Z,16.12
2023-04-27T16:15:08.539Z,16.04
2023-04-27T16:17:37.338Z,15.97
2023-04-27T16:20:08.073Z,15.95
2023-04-27T16:22:35.867Z,15.91
2023-04-27T16:25:03.992Z,15.90
2023-04-27T16:27:31.178Z,15.84
2023-04-27T16:29:58.048Z,15.78
2023-04-27T16:32:24.958Z,15.69
2023-04-27T16:34:51.875Z,15.62
2023-04-27T16:37:18.706Z,15.54
2023-04-27T16:39:45.569Z,15.46
2023-04-27T16:42:18.583Z,15.39
2023-04-27T16:44:46.312Z,15.30
2023-04-27T16:47:13.457Z,15.23
2023-04-27T16:49:42.591Z,15.18
2023-04-27T16:52:09.512Z,15.13
2023-04-27T16:54:36.557Z,15.09
2023-04-27T16:57:04.345Z,15.03
2023-04-27T16:59:31.450Z,14.94
2023-04-27T17:02:06.005Z,14.87
2023-04-27T17:04:40.814Z,14.79
2023-04-27T17:07:09.150Z,14.69
2023-04-27T17:09:36.863Z,14.61
2023-04-27T17:12:08.332Z,14.57
2023-04-27T17:14:35.341Z,14.55
2023-04-27T17:17:02.441Z,14.50
2023-04-27T17:19:29.324Z,14.43
2023-04-27T17:21:56.119Z,14.36
2023-04-27T17:24:24.769Z,14.32
2023-04-27T17:26:51.651Z,14.26
2023-04-27T17:29:18.469Z,14.23
2023-04-27T17:31:45.452Z,14.19
2023-04-27T17:34:12.591Z,14.13
2023-04-27T17:36:39.392Z,14.06
2023-04-27T17:39:06.669Z,14.03
2023-04-27T17:41:34.895Z,14.01
2023-04-27T17:44:04.033Z,13.92
2023-04-27T17:46:30.970Z,13.85
2023-04-27T17:48:57.931Z,13.80
2023-04-27T17:51:24.768Z,13.76
2023-04-27T17:53:51.551Z,13.72
2023-04-27T17:56:18.420Z,13.67
2023-04-27T17:58:45.415Z,13.61
2023-04-27T18:01:13.579Z,13.56
2023-04-27T18:03:42.235Z,13.51
2023-04-27T18:06:09.388Z,13.46
2023-04-27T18:08:36.255Z,13.41
2023-04-27T18:11:03.146Z,13.38
2023-04-27T18:13:31.933Z,13.33
2023-04-27T18:15:59.497Z,13.26
2023-04-27T18:18:27.004Z,13.22
2023-04-27T18:20:53.919Z,13.20
2023-04-27T18:23:21.306Z,13.16
2023-04-27T18:25:48.165Z,13.10
2023-04-27T18:28:15.037Z,13.07
2023-04-27T18:30:42.022Z,13.03
2023-04-27T18:33:08.958Z,13.00
2023-04-27T18:35:35.950Z,12.98
2023-04-27T18:38:03.638Z,12.95
2023-04-27T18:40:30.767Z,12.89
2023-04-27T18:42:57.774Z,12.85
2023-04-27T18:45:24.633Z,12.83
2023-04-27T18:47:51.778Z,12.80
2023-04-27T18:50:19.315Z,12.77
2023-04-27T18:52:46.623Z,12.75
2023-04-27T18:55:17.006Z,12.73
2023-04-27T18:57:44.638Z,12.69
2023-04-27T19:00:13.147Z,12.66
2023-04-27T19:02:40.374Z,12.66
2023-04-27T19:05:12.924Z,12.65
2023-04-27T19:07:41.015Z,12.63
2023-04-27T19:10:08.587Z,12.62
2023-04-27T19:12:36.031Z,12.61
2023-04-27T19:15:03.186Z,12.61
2023-04-27T19:17:32.350Z,12.59
2023-04-27T19:19:59.362Z,12.60
2023-04-27T19:22:27.546Z,12.58
2023-04-27T19:24:54.415Z,12.57
2023-04-27T19:27:21.362Z,12.57
2023-04-27T19:29:53.748Z,12.57
2023-04-27T19:32:22.207Z,12.55
2023-04-27T19:34:49.492Z,12.55
2023-04-27T19:37:16.654Z,12.55
2023-04-27T19:39:43.563Z,12.54
2023-04-27T19:42:10.438Z,12.56
2023-04-27T19:44:37.252Z,12.58
2023-04-27T19:47:04.100Z,12.57
2023-04-27T19:49:32.839Z,12.57
2023-04-27T19:52:00.100Z,12.46
2023-04-27T19:54:27.069Z,12.48
2023-04-27T19:56:54.533Z,12.46
2023-04-27T19:59:21.690Z,12.46
2023-04-27T20:01:48.820Z,12.43
2023-04-27T20:04:18.014Z,12.41
2023-04-27T20:06:46.419Z,12.38
2023-04-27T20:09:13.435Z,12.34
2023-04-27T20:11:40.457Z,12.31
2023-04-27T20:14:07.280Z,12.28
2023-04-27T20:16:34.183Z,12.25
2023-04-27T20:19:01.128Z,12.22
2023-04-27T20:21:28.181Z,12.19
2023-04-27T20:23:55.121Z,12.17
2023-04-27T20:26:22.618Z,12.13
2023-04-27T20:28:49.677Z,12.11
2023-04-27T20:31:16.636Z,12.07
2023-04-27T20:33:43.616Z,12.04
2023-04-27T20:36:17.114Z,12.01
2023-04-27T20:38:45.786Z,11.96
2023-04-27T20:41:12.687Z,11.94
2023-04-27T20:43:40.301Z,11.91
2023-04-27T20:46:16.552Z,11.90
2023-04-27T20:48:43.536Z,11.86
2023-04-27T20:51:10.332Z,11.84
2023-04-27T20:53:37.279Z,11.81
2023-04-27T20:56:04.944Z,11.78
2023-04-27T20:58:31.754Z,11.75
2023-04-27T21:00:58.680Z,11.71
2023-04-27T21:03:25.631Z,11.69
2023-04-27T21:05:52.595Z,11.66
2023-04-27T21:08:19.508Z,11.64
2023-04-27T21:10:46.352Z,11.62
2023-04-27T21:13:13.295Z,11.60
2023-04-27T21:15:40.124Z,11.57
2023-04-27T21:18:13.466Z,11.55
2023-04-27T21:20:45.978Z,11.52
2023-04-27T21:23:14.817Z,11.49
2023-04-27T21:25:45.056Z,11.35
2023-04-27T21:28:12.048Z,11.35
2023-04-27T21:30:39.459Z,11.35
2023-04-27T21:33:07.131Z,11.31
2023-04-27T21:35:34.041Z,11.32
2023-04-27T21:38:00.917Z,11.30
2023-04-27T21:40:27.905Z,11.29
2023-04-27T21:42:55.172Z,11.27
2023-04-27T21:45:22.219Z,11.26
2023-04-27T21:47:49.041Z,11.25
2023-04-27T21:50:16.856Z,11.24
2023-04-27T21:52:44.047Z,11.23
2023-04-27T21:55:11.158Z,11.22
2023-04-27T21:57:38.118Z,11.20
2023-04-27T22:00:13.390Z,11.18
2023-04-27T22:02:42.687Z,11.13
2023-04-27T22:05:09.866Z,11.13
2023-04-27T22:07:37.618Z,11.10
2023-04-27T22:10:05.867Z,11.09
2023-04-27T22:12:33.554Z,11.05
2023-04-27T22:15:00.976Z,11.03
2023-04-27T22:17:28.117Z,11.03
2023-04-27T22:19:55.018Z,10.99
2023-04-27T22:22:21.820Z,10.97
2023-04-27T22:24:48.741Z,10.96
2023-04-27T22:27:16.033Z,10.92
2023-04-27T22:29:42.908Z,10.92
2023-04-27T22:32:10.138Z,10.90
2023-04-27T22:34:37.470Z,10.87
2023-04-27T22:37:04.534Z,10.85
2023-04-27T22:39:32.489Z,10.84
2023-04-27T22:41:59.382Z,10.84
2023-04-27T22:44:26.228Z,10.84
2023-04-27T22:46:53.080Z,10.83
2023-04-27T22:49:19.901Z,10.81
2023-04-27T22:51:47.348Z,10.80
2023-04-27T22:54:14.859Z,10.76
2023-04-27T22:56:41.934Z,10.74
2023-04-27T22:59:08.845Z,10.71
2023-04-27T23:01:35.769Z,10.73
2023-04-27T23:04:03.087Z,10.70
2023-04-27T23:06:30.446Z,10.67
2023-04-27T23:08:57.378Z,10.65
2023-04-27T23:11:24.206Z,10.64
2023-04-27T23:13:51.044Z,10.62
2023-04-27T23:16:18.001Z,10.60
2023-04-27T23:18:44.912Z,10.57
2023-04-27T23:21:11.905Z,10.56
2023-04-27T23:23:38.788Z,10.55
2023-04-27T23:26:14.897Z,10.51
2023-04-27T23:28:42.488Z,10.49
2023-04-27T23:31:09.776Z,10.50
2023-04-27T23:33:36.985Z,10.47
2023-04-27T23:36:04.674Z,10.44
2023-04-27T23:38:31.585Z,10.42
2023-04-27T23:40:58.783Z,10.38
2023-04-27T23:43:27.555Z,10.33
2023-04-27T23:45:54.550Z,10.33
2023-04-27T23:48:21.755Z,10.31
2023-04-27T23:50:48.692Z,10.31
2023-04-27T23:53:15.471Z,10.30
2023-04-27T23:55:42.293Z,10.27
2023-04-27T23:58:09.095Z,10.23
